sensor_id;sensor_type;location;lat;lon;timestamp;temperature;humidity
72277;SHT30;61204;49.980;8.358;2023-03-12T00:00:51;-1.96;86.36
72277;SHT30;61204;49.980;8.358;2023-03-12T00:03:16;-1.92;86.38
72277;SHT30;61204;49.980;8.358;2023-03-12T00:05:43;-1.88;86.86
72277;SHT30;61204;49.980;8.358;2023-03-12T00:08:09;-1.92;86.41
72277;SHT30;61204;49.980;8.358;2023-03-12T00:10:37;-2.02;86.52
72277;SHT30;61204;49.980;8.358;2023-03-12T00:13:04;-2.05;87.05
72277;SHT30;61204;49.980;8.358;2023-03-12T00:15:30;-2.09;87.77
72277;SHT30;61204;49.980;8.358;2023-03-12T00:17:55;-2.15;87.65
72277;SHT30;61204;49.980;8.358;2023-03-12T00:20:21;-2.25;87.53
72277;SHT30;61204;49.980;8.358;2023-03-12T00:22:50;-2.30;88.03
72277;SHT30;61204;49.980;8.358;2023-03-12T00:25:16;-2.39;88.22
72277;SHT30;61204;49.980;8.358;2023-03-12T00:27:45;-2.40;88.29
72277;SHT30;61204;49.980;8.358;2023-03-12T00:30:11;-2.44;88.39
72277;SHT30;61204;49.980;8.358;2023-03-12T00:32:38;-2.33;89.73
72277;SHT30;61204;49.980;8.358;2023-03-12T00:35:05;-2.37;89.16
72277;SHT30;61204;49.980;8.358;2023-03-12T00:37:31;-2.34;89.35
72277;SHT30;61204;49.980;8.358;2023-03-12T00:39:58;-2.09;90.22
72277;SHT30;61204;49.980;8.358;2023-03-12T00:42:26;-1.95;89.08
72277;SHT30;61204;49.980;8.358;2023-03-12T00:44:51;-1.81;88.47
72277;SHT30;61204;49.980;8.358;2023-03-12T00:47:17;-1.79;88.05
72277;SHT30;61204;49.980;8.358;2023-03-12T00:49:42;-1.79;88.11
72277;SHT30;61204;49.980;8.358;2023-03-12T00:52:08;-1.74;87.97
72277;SHT30;61204;49.980;8.358;2023-03-12T00:54:33;-1.68;87.68
72277;SHT30;61204;49.980;8.358;2023-03-12T00:56:59;-1.72;87.93
72277;SHT30;61204;49.980;8.358;2023-03-12T00:59:24;-1.78;88.01
72277;SHT30;61204;49.980;8.358;2023-03-12T01:01:52;-1.81;88.05
72277;SHT30;61204;49.980;8.358;2023-03-12T01:04:17;-1.84;88.35
72277;SHT30;61204;49.980;8.358;2023-03-12T01:06:42;-1.87;88.37
72277;SHT30;61204;49.980;8.358;2023-03-12T01:09:11;-1.87;89.07
72277;SHT30;61204;49.980;8.358;2023-03-12T01:11:37;-1.89;89.50
72277;SHT30;61204;49.980;8.358;2023-03-12T01:14:04;-1.95;89.60
72277;SHT30;61204;49.980;8.358;2023-03-12T01:16:32;-1.98;89.32
72277;SHT30;61204;49.980;8.358;2023-03-12T01:18:59;-1.96;89.58
72277;SHT30;61204;49.980;8.358;2023-03-12T01:21:27;-1.99;89.83
72277;SHT30;61204;49.980;8.358;2023-03-12T01:23:54;-2.01;89.55
72277;SHT30;61204;49.980;8.358;2023-03-12T01:26:20;-2.05;89.40
72277;SHT30;61204;49.980;8.358;2023-03-12T01:28:46;-2.01;89.51
72277;SHT30;61204;49.980;8.358;2023-03-12T01:31:14;-1.98;89.29
72277;SHT30;61204;49.980;8.358;2023-03-12T01:33:42;-1.92;89.30
72277;SHT30;61204;49.980;8.358;2023-03-12T01:36:20;-1.91;88.84
72277;SHT30;61204;49.980;8.358;2023-03-12T01:38:52;-1.88;88.24
72277;SHT30;61204;49.980;8.358;2023-03-12T01:41:21;-1.87;88.45
72277;SHT30;61204;49.980;8.358;2023-03-12T01:43:50;-1.84;89.31
72277;SHT30;61204;49.980;8.358;2023-03-12T01:46:35;-1.85;89.54
72277;SHT30;61204;49.980;8.358;2023-03-12T01:49:13;-1.85;89.05
72277;SHT30;61204;49.980;8.358;2023-03-12T01:54:30;-1.84;87.43
72277;SHT30;61204;49.980;8.358;2023-03-12T01:57:08;-1.87;87.67
72277;SHT30;61204;49.980;8.358;2023-03-12T01:59:38;-1.87;87.78
72277;SHT30;61204;49.980;8.358;2023-03-12T02:02:08;-1.84;88.02
72277;SHT30;61204;49.980;8.358;2023-03-12T02:04:35;-1.87;88.21
72277;SHT30;61204;49.980;8.358;2023-03-12T02:07:08;-1.81;88.41
72277;SHT30;61204;49.980;8.358;2023-03-12T02:09:45;-1.79;87.56
72277;SHT30;61204;49.980;8.358;2023-03-12T02:12:13;-1.74;88.21
72277;SHT30;61204;49.980;8.358;2023-03-12T02:14:38;-1.72;88.16
72277;SHT30;61204;49.980;8.358;2023-03-12T02:17:05;-1.68;88.07
72277;SHT30;61204;49.980;8.358;2023-03-12T02:19:45;-1.61;86.99
72277;SHT30;61204;49.980;8.358;2023-03-12T02:22:14;-1.56;86.73
72277;SHT30;61204;49.980;8.358;2023-03-12T02:24:45;-1.59;87.08
72277;SHT30;61204;49.980;8.358;2023-03-12T02:27:29;-1.56;86.80
72277;SHT30;61204;49.980;8.358;2023-03-12T02:29:58;-1.56;86.25
72277;SHT30;61204;49.980;8.358;2023-03-12T02:32:27;-1.54;86.30
72277;SHT30;61204;49.980;8.358;2023-03-12T02:34:55;-1.54;86.54
72277;SHT30;61204;49.980;8.358;2023-03-12T02:37:21;-1.57;86.47
72277;SHT30;61204;49.980;8.358;2023-03-12T02:40:14;-1.53;86.31
72277;SHT30;61204;49.980;8.358;2023-03-12T02:42:47;-1.53;86.27
72277;SHT30;61204;49.980;8.358;2023-03-12T02:45:12;-1.53;86.33
72277;SHT30;61204;49.980;8.358;2023-03-12T02:47:38;-1.46;86.28
72277;SHT30;61204;49.980;8.358;2023-03-12T02:50:04;-1.43;86.44
72277;SHT30;61204;49.980;8.358;2023-03-12T02:52:30;-1.42;86.45
72277;SHT30;61204;49.980;8.358;2023-03-12T02:55:00;-1.42;86.78
72277;SHT30;61204;49.980;8.358;2023-03-12T02:57:28;-1.38;86.90
72277;SHT30;61204;49.980;8.358;2023-03-12T02:59:54;-1.36;86.54
72277;SHT30;61204;49.980;8.358;2023-03-12T03:02:19;-1.33;86.46
72277;SHT30;61204;49.980;8.358;2023-03-12T03:04:45;-1.32;86.65
72277;SHT30;61204;49.980;8.358;2023-03-12T03:07:11;-1.29;85.92
72277;SHT30;61204;49.980;8.358;2023-03-12T03:09:39;-1.29;85.90
72277;SHT30;61204;49.980;8.358;2023-03-12T03:12:05;-1.29;85.53
72277;SHT30;61204;49.980;8.358;2023-03-12T03:14:31;-1.29;85.38
72277;SHT30;61204;49.980;8.358;2023-03-12T03:16:57;-1.29;85.44
72277;SHT30;61204;49.980;8.358;2023-03-12T03:19:23;-1.28;85.35
72277;SHT30;61204;49.980;8.358;2023-03-12T03:21:48;-1.23;85.51
72277;SHT30;61204;49.980;8.358;2023-03-12T03:24:14;-1.26;85.63
72277;SHT30;61204;49.980;8.358;2023-03-12T03:26:41;-1.25;85.39
72277;SHT30;61204;49.980;8.358;2023-03-12T03:29:08;-1.22;85.22
72277;SHT30;61204;49.980;8.358;2023-03-12T03:31:34;-1.19;85.24
72277;SHT30;61204;49.980;8.358;2023-03-12T03:33:59;-1.16;84.97
72277;SHT30;61204;49.980;8.358;2023-03-12T03:36:24;-1.16;85.02
72277;SHT30;61204;49.980;8.358;2023-03-12T03:38:50;-1.17;85.01
72277;SHT30;61204;49.980;8.358;2023-03-12T03:41:18;-1.15;85.29
72277;SHT30;61204;49.980;8.358;2023-03-12T03:43:45;-1.19;85.54
72277;SHT30;61204;49.980;8.358;2023-03-12T03:46:12;-1.19;85.67
72277;SHT30;61204;49.980;8.358;2023-03-12T03:48:39;-1.19;86.13
72277;SHT30;61204;49.980;8.358;2023-03-12T03:51:07;-1.17;86.46
72277;SHT30;61204;49.980;8.358;2023-03-12T03:53:39;-1.20;86.86
72277;SHT30;61204;49.980;8.358;2023-03-12T03:56:13;-1.20;86.81
72277;SHT30;61204;49.980;8.358;2023-03-12T03:58:40;-1.25;86.87
72277;SHT30;61204;49.980;8.358;2023-03-12T04:01:09;-1.25;86.69
72277;SHT30;61204;49.980;8.358;2023-03-12T04:03:37;-1.23;86.64
72277;SHT30;61204;49.980;8.358;2023-03-12T04:06:04;-1.22;86.46
72277;SHT30;61204;49.980;8.358;2023-03-12T04:08:31;-1.22;86.29
72277;SHT30;61204;49.980;8.358;2023-03-12T04:11:08;-1.17;85.56
72277;SHT30;61204;49.980;8.358;2023-03-12T04:13:35;-1.11;85.51
72277;SHT30;61204;49.980;8.358;2023-03-12T04:16:02;-1.12;85.08
72277;SHT30;61204;49.980;8.358;2023-03-12T04:18:27;-1.12;85.18
72277;SHT30;61204;49.980;8.358;2023-03-12T04:20:53;-1.09;85.28
72277;SHT30;61204;49.980;8.358;2023-03-12T04:23:18;-1.08;85.47
72277;SHT30;61204;49.980;8.358;2023-03-12T04:25:44;-1.01;85.30
72277;SHT30;61204;49.980;8.358;2023-03-12T04:28:09;-0.98;84.97
72277;SHT30;61204;49.980;8.358;2023-03-12T04:30:35;-1.01;84.73
72277;SHT30;61204;49.980;8.358;2023-03-12T04:33:03;-1.04;84.21
72277;SHT30;61204;49.980;8.358;2023-03-12T04:35:29;-0.99;83.90
72277;SHT30;61204;49.980;8.358;2023-03-12T04:37:55;-0.98;84.27
72277;SHT30;61204;49.980;8.358;2023-03-12T04:40:21;-0.95;84.54
72277;SHT30;61204;49.980;8.358;2023-03-12T04:42:48;-0.97;84.53
72277;SHT30;61204;49.980;8.358;2023-03-12T04:45:14;-0.95;84.73
72277;SHT30;61204;49.980;8.358;2023-03-12T04:47:40;-0.89;85.37
72277;SHT30;61204;49.980;8.358;2023-03-12T04:50:06;-0.88;85.92
72277;SHT30;61204;49.980;8.358;2023-03-12T04:52:32;-0.83;86.67
72277;SHT30;61204;49.980;8.358;2023-03-12T04:54:57;-0.80;86.78
72277;SHT30;61204;49.980;8.358;2023-03-12T04:57:26;-0.74;86.75
72277;SHT30;61204;49.980;8.358;2023-03-12T04:59:51;-0.71;86.81
72277;SHT30;61204;49.980;8.358;2023-03-12T05:02:17;-0.66;86.69
72277;SHT30;61204;49.980;8.358;2023-03-12T05:04:42;-0.64;86.80
72277;SHT30;61204;49.980;8.358;2023-03-12T05:07:08;-0.66;86.96
72277;SHT30;61204;49.980;8.358;2023-03-12T05:09:34;-0.57;86.50
72277;SHT30;61204;49.980;8.358;2023-03-12T05:11:59;-0.59;86.91
72277;SHT30;61204;49.980;8.358;2023-03-12T05:14:25;-0.57;87.15
72277;SHT30;61204;49.980;8.358;2023-03-12T05:16:50;-0.59;87.19
72277;SHT30;61204;49.980;8.358;2023-03-12T05:19:15;-0.50;86.45
72277;SHT30;61204;49.980;8.358;2023-03-12T05:21:43;-0.48;85.48
72277;SHT30;61204;49.980;8.358;2023-03-12T05:24:10;-0.46;85.72
72277;SHT30;61204;49.980;8.358;2023-03-12T05:26:36;-0.50;85.45
72277;SHT30;61204;49.980;8.358;2023-03-12T05:29:03;-0.50;86.23
72277;SHT30;61204;49.980;8.358;2023-03-12T05:31:30;-0.49;86.99
72277;SHT30;61204;49.980;8.358;2023-03-12T05:33:59;-0.50;86.89
72277;SHT30;61204;49.980;8.358;2023-03-12T05:36:27;-0.49;85.92
72277;SHT30;61204;49.980;8.358;2023-03-12T05:38:53;-0.50;85.63
72277;SHT30;61204;49.980;8.358;2023-03-12T05:41:21;-0.48;84.94
72277;SHT30;61204;49.980;8.358;2023-03-12T05:43:49;-0.46;84.33
72277;SHT30;61204;49.980;8.358;2023-03-12T05:46:17;-0.48;84.10
72277;SHT30;61204;49.980;8.358;2023-03-12T05:48:45;-0.43;85.03
72277;SHT30;61204;49.980;8.358;2023-03-12T05:51:11;-0.46;85.12
72277;SHT30;61204;49.980;8.358;2023-03-12T05:53:36;-0.43;85.53
72277;SHT30;61204;49.980;8.358;2023-03-12T05:56:07;-0.48;84.56
72277;SHT30;61204;49.980;8.358;2023-03-12T05:58:39;-0.49;85.17
72277;SHT30;61204;49.980;8.358;2023-03-12T06:01:17;-0.48;85.19
72277;SHT30;61204;49.980;8.358;2023-03-12T06:03:46;-0.48;85.56
72277;SHT30;61204;49.980;8.358;2023-03-12T06:06:12;-0.46;85.04
72277;SHT30;61204;49.980;8.358;2023-03-12T06:08:39;-0.46;84.48
72277;SHT30;61204;49.980;8.358;2023-03-12T06:11:05;-0.42;85.38
72277;SHT30;61204;49.980;8.358;2023-03-12T06:13:30;-0.39;84.31
72277;SHT30;61204;49.980;8.358;2023-03-12T06:16:21;-0.36;83.08
72277;SHT30;61204;49.980;8.358;2023-03-12T06:18:55;-0.32;83.53
72277;SHT30;61204;49.980;8.358;2023-03-12T06:21:26;-0.33;82.99
72277;SHT30;61204;49.980;8.358;2023-03-12T06:23:55;-0.29;83.11
72277;SHT30;61204;49.980;8.358;2023-03-12T06:26:22;-0.28;83.06
72277;SHT30;61204;49.980;8.358;2023-03-12T06:28:48;-0.26;82.53
72277;SHT30;61204;49.980;8.358;2023-03-12T06:31:18;-0.22;82.53
72277;SHT30;61204;49.980;8.358;2023-03-12T06:33:45;-0.21;83.05
72277;SHT30;61204;49.980;8.358;2023-03-12T06:36:11;-0.21;82.42
72277;SHT30;61204;49.980;8.358;2023-03-12T06:38:37;-0.16;82.54
72277;SHT30;61204;49.980;8.358;2023-03-12T06:41:10;-0.12;83.02
72277;SHT30;61204;49.980;8.358;2023-03-12T06:43:39;-0.09;83.52
72277;SHT30;61204;49.980;8.358;2023-03-12T06:46:08;-0.05;83.17
72277;SHT30;61204;49.980;8.358;2023-03-12T06:48:36;-0.04;83.29
72277;SHT30;61204;49.980;8.358;2023-03-12T06:51:08;0.01;83.25
72277;SHT30;61204;49.980;8.358;2023-03-12T06:53:35;0.03;83.49
72277;SHT30;61204;49.980;8.358;2023-03-12T06:56:03;0.07;83.68
72277;SHT30;61204;49.980;8.358;2023-03-12T06:58:29;0.13;84.14
72277;SHT30;61204;49.980;8.358;2023-03-12T07:00:56;0.13;84.25
72277;SHT30;61204;49.980;8.358;2023-03-12T07:03:21;0.06;85.73
72277;SHT30;61204;49.980;8.358;2023-03-12T07:05:49;0.03;85.43
72277;SHT30;61204;49.980;8.358;2023-03-12T07:08:16;0.03;87.06
72277;SHT30;61204;49.980;8.358;2023-03-12T07:10:43;0.01;87.41
72277;SHT30;61204;49.980;8.358;2023-03-12T07:13:10;0.01;88.24
72277;SHT30;61204;49.980;8.358;2023-03-12T07:15:35;0.05;87.74
72277;SHT30;61204;49.980;8.358;2023-03-12T07:18:06;0.01;88.77
72277;SHT30;61204;49.980;8.358;2023-03-12T07:20:35;-0.08;89.53
72277;SHT30;61204;49.980;8.358;2023-03-12T07:23:03;-0.11;90.13
72277;SHT30;61204;49.980;8.358;2023-03-12T07:25:29;-0.08;89.93
72277;SHT30;61204;49.980;8.358;2023-03-12T07:27:55;-0.01;90.45
72277;SHT30;61204;49.980;8.358;2023-03-12T07:30:22;0.01;90.33
72277;SHT30;61204;49.980;8.358;2023-03-12T07:32:48;-0.02;90.66
72277;SHT30;61204;49.980;8.358;2023-03-12T07:35:13;0.10;90.57
72277;SHT30;61204;49.980;8.358;2023-03-12T07:37:39;0.10;90.42
72277;SHT30;61204;49.980;8.358;2023-03-12T07:40:05;0.10;90.44
72277;SHT30;61204;49.980;8.358;2023-03-12T07:42:34;0.13;90.12
72277;SHT30;61204;49.980;8.358;2023-03-12T07:45:00;0.16;90.12
72277;SHT30;61204;49.980;8.358;2023-03-12T07:47:25;0.05;90.87
72277;SHT30;61204;49.980;8.358;2023-03-12T07:49:51;-0.05;91.33
72277;SHT30;61204;49.980;8.358;2023-03-12T07:52:18;-0.11;92.16
72277;SHT30;61204;49.980;8.358;2023-03-12T07:54:44;-0.19;92.29
72277;SHT30;61204;49.980;8.358;2023-03-12T07:57:11;-0.18;92.72
72277;SHT30;61204;49.980;8.358;2023-03-12T07:59:37;-0.04;92.69
72277;SHT30;61204;49.980;8.358;2023-03-12T08:02:03;0.05;92.73
72277;SHT30;61204;49.980;8.358;2023-03-12T08:04:28;0.13;92.66
72277;SHT30;61204;49.980;8.358;2023-03-12T08:06:53;0.16;92.32
72277;SHT30;61204;49.980;8.358;2023-03-12T08:09:19;0.19;92.42
72277;SHT30;61204;49.980;8.358;2023-03-12T08:11:44;0.19;92.20
72277;SHT30;61204;49.980;8.358;2023-03-12T08:14:10;0.19;92.40
72277;SHT30;61204;49.980;8.358;2023-03-12T08:16:35;0.14;92.67
72277;SHT30;61204;49.980;8.358;2023-03-12T08:19:01;0.19;92.80
72277;SHT30;61204;49.980;8.358;2023-03-12T08:21:26;0.29;92.61
72277;SHT30;61204;49.980;8.358;2023-03-12T08:23:52;0.30;92.04
72277;SHT30;61204;49.980;8.358;2023-03-12T08:26:17;0.29;92.25
72277;SHT30;61204;49.980;8.358;2023-03-12T08:28:42;0.33;92.41
72277;SHT30;61204;49.980;8.358;2023-03-12T08:31:10;0.40;92.34
72277;SHT30;61204;49.980;8.358;2023-03-12T08:33:36;0.46;92.34
72277;SHT30;61204;49.980;8.358;2023-03-12T08:36:05;0.53;92.16
72277;SHT30;61204;49.980;8.358;2023-03-12T08:38:31;0.60;92.35
72277;SHT30;61204;49.980;8.358;2023-03-12T08:40:58;0.65;92.36
72277;SHT30;61204;49.980;8.358;2023-03-12T08:43:25;0.68;92.32
72277;SHT30;61204;49.980;8.358;2023-03-12T08:45:58;0.75;92.57
72277;SHT30;61204;49.980;8.358;2023-03-12T08:48:27;0.72;92.34
72277;SHT30;61204;49.980;8.358;2023-03-12T08:50:55;0.74;92.23
72277;SHT30;61204;49.980;8.358;2023-03-12T08:53:22;0.79;92.17
72277;SHT30;61204;49.980;8.358;2023-03-12T08:55:53;0.91;92.14
72277;SHT30;61204;49.980;8.358;2023-03-12T08:58:20;0.92;92.17
72277;SHT30;61204;49.980;8.358;2023-03-12T09:00:47;0.91;92.27
72277;SHT30;61204;49.980;8.358;2023-03-12T09:03:13;1.05;92.84
72277;SHT30;61204;49.980;8.358;2023-03-12T09:05:40;1.13;92.63
72277;SHT30;61204;49.980;8.358;2023-03-12T09:08:06;1.19;92.56
72277;SHT30;61204;49.980;8.358;2023-03-12T09:10:32;1.19;92.44
72277;SHT30;61204;49.980;8.358;2023-03-12T09:12:58;1.17;92.47
72277;SHT30;61204;49.980;8.358;2023-03-12T09:15:24;1.16;92.32
72277;SHT30;61204;49.980;8.358;2023-03-12T09:17:50;1.10;92.56
72277;SHT30;61204;49.980;8.358;2023-03-12T09:20:15;1.02;92.76
72277;SHT30;61204;49.980;8.358;2023-03-12T09:22:41;0.92;93.23
72277;SHT30;61204;49.980;8.358;2023-03-12T09:25:08;1.02;93.68
72277;SHT30;61204;49.980;8.358;2023-03-12T09:27:40;0.97;93.74
72277;SHT30;61204;49.980;8.358;2023-03-12T09:30:12;1.07;94.34
72277;SHT30;61204;49.980;8.358;2023-03-12T09:32:42;1.27;94.41
72277;SHT30;61204;49.980;8.358;2023-03-12T09:35:09;1.43;94.06
72277;SHT30;61204;49.980;8.358;2023-03-12T09:37:36;1.57;94.11
72277;SHT30;61204;49.980;8.358;2023-03-12T09:40:02;1.71;93.76
72277;SHT30;61204;49.980;8.358;2023-03-12T09:42:42;1.85;93.51
72277;SHT30;61204;49.980;8.358;2023-03-12T09:45:25;1.89;93.23
72277;SHT30;61204;49.980;8.358;2023-03-12T09:48:00;1.95;93.42
72277;SHT30;61204;49.980;8.358;2023-03-12T09:50:33;2.22;93.04
72277;SHT30;61204;49.980;8.358;2023-03-12T09:53:27;2.36;92.18
72277;SHT30;61204;49.980;8.358;2023-03-12T09:56:10;2.54;91.34
72277;SHT30;61204;49.980;8.358;2023-03-12T09:58:39;2.57;90.58
72277;SHT30;61204;49.980;8.358;2023-03-12T10:06:38;2.72;90.17
72277;SHT30;61204;49.980;8.358;2023-03-12T10:15:15;3.03;89.47
72277;SHT30;61204;49.980;8.358;2023-03-12T10:17:57;3.10;90.61
72277;SHT30;61204;49.980;8.358;2023-03-12T10:26:54;3.20;90.05
72277;SHT30;61204;49.980;8.358;2023-03-12T10:29:25;3.06;90.78
72277;SHT30;61204;49.980;8.358;2023-03-12T10:34:38;3.34;90.54
72277;SHT30;61204;49.980;8.358;2023-03-12T10:37:42;3.27;90.01
72277;SHT30;61204;49.980;8.358;2023-03-12T10:40:20;3.42;90.92
72277;SHT30;61204;49.980;8.358;2023-03-12T10:42:47;3.50;90.82
72277;SHT30;61204;49.980;8.358;2023-03-12T10:45:23;3.79;90.96
72277;SHT30;61204;49.980;8.358;2023-03-12T10:48:07;3.51;88.42
72277;SHT30;61204;49.980;8.358;2023-03-12T10:50:37;3.72;90.82
72277;SHT30;61204;49.980;8.358;2023-03-12T10:53:43;3.75;90.21
72277;SHT30;61204;49.980;8.358;2023-03-12T10:56:16;3.99;89.24
72277;SHT30;61204;49.980;8.358;2023-03-12T10:58:49;3.89;87.98
72277;SHT30;61204;49.980;8.358;2023-03-12T11:03:48;4.04;88.50
72277;SHT30;61204;49.980;8.358;2023-03-12T11:06:28;4.09;89.28
72277;SHT30;61204;49.980;8.358;2023-03-12T11:11:35;3.89;89.90
72277;SHT30;61204;49.980;8.358;2023-03-12T11:16:44;3.96;89.93
72277;SHT30;61204;49.980;8.358;2023-03-12T11:19:27;3.97;89.49
72277;SHT30;61204;49.980;8.358;2023-03-12T11:22:00;4.24;90.07
72277;SHT30;61204;49.980;8.358;2023-03-12T11:24:27;4.47;90.01
72277;SHT30;61204;49.980;8.358;2023-03-12T11:27:29;4.45;89.03
72277;SHT30;61204;49.980;8.358;2023-03-12T11:29:56;4.65;89.29
72277;SHT30;61204;49.980;8.358;2023-03-12T11:32:28;4.69;88.43
72277;SHT30;61204;49.980;8.358;2023-03-12T11:34:57;4.76;88.61
72277;SHT30;61204;49.980;8.358;2023-03-12T11:37:45;4.80;88.56
72277;SHT30;61204;49.980;8.358;2023-03-12T11:43:32;5.04;87.79
72277;SHT30;61204;49.980;8.358;2023-03-12T11:49:13;4.78;86.98
72277;SHT30;61204;49.980;8.358;2023-03-12T11:52:31;4.96;87.20
72277;SHT30;61204;49.980;8.358;2023-03-12T12:01:10;5.58;87.00
72277;SHT30;61204;49.980;8.358;2023-03-12T12:26:13;7.52;82.35
72277;SHT30;61204;49.980;8.358;2023-03-12T12:31:57;7.72;78.86
72277;SHT30;61204;49.980;8.358;2023-03-12T12:35:24;7.79;79.00
72277;SHT30;61204;49.980;8.358;2023-03-12T12:40:36;8.14;78.33
72277;SHT30;61204;49.980;8.358;2023-03-12T12:43:26;8.15;78.47
72277;SHT30;61204;49.980;8.358;2023-03-12T12:46:02;8.31;79.59
72277;SHT30;61204;49.980;8.358;2023-03-12T12:48:37;8.35;77.00
72277;SHT30;61204;49.980;8.358;2023-03-12T12:51:08;8.18;77.29
72277;SHT30;61204;49.980;8.358;2023-03-12T12:53:47;8.11;78.17
72277;SHT30;61204;49.980;8.358;2023-03-12T13:02:39;8.30;77.70
72277;SHT30;61204;49.980;8.358;2023-03-12T13:05:39;8.31;77.61
72277;SHT30;61204;49.980;8.358;2023-03-12T13:08:30;8.60;77.47
72277;SHT30;61204;49.980;8.358;2023-03-12T13:11:57;9.21;76.58
72277;SHT30;61204;49.980;8.358;2023-03-12T13:14:22;10.08;75.00
72277;SHT30;61204;49.980;8.358;2023-03-12T13:17:32;10.70;73.44
72277;SHT30;61204;49.980;8.358;2023-03-12T13:31:32;9.67;75.08
72277;SHT30;61204;49.980;8.358;2023-03-12T13:33:53;9.89;74.43
72277;SHT30;61204;49.980;8.358;2023-03-12T13:36:26;10.48;73.20
72277;SHT30;61204;49.980;8.358;2023-03-12T13:41:34;10.80;74.44
72277;SHT30;61204;49.980;8.358;2023-03-12T13:46:58;11.13;71.47
72277;SHT30;61204;49.980;8.358;2023-03-12T13:49:25;10.97;72.01
72277;SHT30;61204;49.980;8.358;2023-03-12T13:52:02;11.28;71.85
72277;SHT30;61204;49.980;8.358;2023-03-12T13:54:33;11.56;72.67
72277;SHT30;61204;49.980;8.358;2023-03-12T13:57:29;11.77;72.01
72277;SHT30;61204;49.980;8.358;2023-03-12T13:59:57;11.80;70.91
72277;SHT30;61204;49.980;8.358;2023-03-12T14:02:28;11.79;70.43
72277;SHT30;61204;49.980;8.358;2023-03-12T14:05:06;11.77;70.67
72277;SHT30;61204;49.980;8.358;2023-03-12T14:07:46;11.62;70.60
72277;SHT30;61204;49.980;8.358;2023-03-12T14:14:26;11.21;70.97
72277;SHT30;61204;49.980;8.358;2023-03-12T14:16:45;10.90;71.66
72277;SHT30;61204;49.980;8.358;2023-03-12T14:19:17;10.83;71.90
72277;SHT30;61204;49.980;8.358;2023-03-12T14:21:49;10.63;72.89
72277;SHT30;61204;49.980;8.358;2023-03-12T14:24:23;10.65;73.05
72277;SHT30;61204;49.980;8.358;2023-03-12T14:26:53;10.52;73.51
72277;SHT30;61204;49.980;8.358;2023-03-12T14:29:33;10.62;71.78
72277;SHT30;61204;49.980;8.358;2023-03-12T14:32:19;10.59;72.03
72277;SHT30;61204;49.980;8.358;2023-03-12T14:35:22;10.49;72.72
72277;SHT30;61204;49.980;8.358;2023-03-12T14:41:02;10.62;72.61
72277;SHT30;61204;49.980;8.358;2023-03-12T14:43:33;10.73;73.41
72277;SHT30;61204;49.980;8.358;2023-03-12T14:46:06;10.93;72.77
72277;SHT30;61204;49.980;8.358;2023-03-12T14:48:39;10.73;72.23
72277;SHT30;61204;49.980;8.358;2023-03-12T14:51:06;10.79;72.58
72277;SHT30;61204;49.980;8.358;2023-03-12T14:53:34;10.75;73.33
72277;SHT30;61204;49.980;8.358;2023-03-12T14:58:47;10.87;73.06
72277;SHT30;61204;49.980;8.358;2023-03-12T15:01:18;11.00;73.71
72277;SHT30;61204;49.980;8.358;2023-03-12T15:03:48;11.08;73.06
72277;SHT30;61204;49.980;8.358;2023-03-12T15:06:45;11.08;72.66
72277;SHT30;61204;49.980;8.358;2023-03-12T15:09:19;11.14;71.82
72277;SHT30;61204;49.980;8.358;2023-03-12T15:11:52;11.24;71.50
72277;SHT30;61204;49.980;8.358;2023-03-12T15:14:27;11.22;71.10
72277;SHT30;61204;49.980;8.358;2023-03-12T15:16:56;11.15;71.75
72277;SHT30;61204;49.980;8.358;2023-03-12T15:19:28;11.22;72.31
72277;SHT30;61204;49.980;8.358;2023-03-12T15:21:58;11.25;71.87
72277;SHT30;61204;49.980;8.358;2023-03-12T15:24:27;11.11;72.03
72277;SHT30;61204;49.980;8.358;2023-03-12T15:26:54;11.08;72.29
72277;SHT30;61204;49.980;8.358;2023-03-12T15:29:27;11.11;72.71
72277;SHT30;61204;49.980;8.358;2023-03-12T15:31:59;11.10;72.59
72277;SHT30;61204;49.980;8.358;2023-03-12T15:34:36;11.13;72.17
72277;SHT30;61204;49.980;8.358;2023-03-12T15:37:20;11.08;71.88
72277;SHT30;61204;49.980;8.358;2023-03-12T15:39:53;11.00;71.62
72277;SHT30;61204;49.980;8.358;2023-03-12T15:42:23;10.92;72.68
72277;SHT30;61204;49.980;8.358;2023-03-12T15:44:52;10.84;72.92
72277;SHT30;61204;49.980;8.358;2023-03-12T15:47:23;10.69;73.64
72277;SHT30;61204;49.980;8.358;2023-03-12T15:49:55;10.56;74.23
72277;SHT30;61204;49.980;8.358;2023-03-12T15:52:34;10.52;74.84
72277;SHT30;61204;49.980;8.358;2023-03-12T16:02:38;10.48;74.60
72277;SHT30;61204;49.980;8.358;2023-03-12T16:05:11;10.37;74.55
72277;SHT30;61204;49.980;8.358;2023-03-12T16:07:37;10.35;74.76
72277;SHT30;61204;49.980;8.358;2023-03-12T16:10:03;10.15;75.09
72277;SHT30;61204;49.980;8.358;2023-03-12T16:12:32;10.05;75.47
72277;SHT30;61204;49.980;8.358;2023-03-12T16:14:58;10.11;75.82
72277;SHT30;61204;49.980;8.358;2023-03-12T16:17:23;10.01;76.30
72277;SHT30;61204;49.980;8.358;2023-03-12T16:19:49;10.07;76.18
72277;SHT30;61204;49.980;8.358;2023-03-12T16:22:14;10.07;76.22
72277;SHT30;61204;49.980;8.358;2023-03-12T16:24:41;10.10;76.52
72277;SHT30;61204;49.980;8.358;2023-03-12T16:27:11;10.05;76.39
72277;SHT30;61204;49.980;8.358;2023-03-12T16:29:39;10.08;76.59
72277;SHT30;61204;49.980;8.358;2023-03-12T16:32:14;9.98;76.46
72277;SHT30;61204;49.980;8.358;2023-03-12T16:34:41;10.00;76.09
72277;SHT30;61204;49.980;8.358;2023-03-12T16:37:12;9.93;76.44
72277;SHT30;61204;49.980;8.358;2023-03-12T16:39:38;9.96;76.58
72277;SHT30;61204;49.980;8.358;2023-03-12T16:42:13;9.89;76.70
72277;SHT30;61204;49.980;8.358;2023-03-12T16:44:42;9.80;76.55
72277;SHT30;61204;49.980;8.358;2023-03-12T16:47:13;9.73;76.78
72277;SHT30;61204;49.980;8.358;2023-03-12T16:49:39;9.59;77.39
72277;SHT30;61204;49.980;8.358;2023-03-12T16:52:20;9.56;77.31
72277;SHT30;61204;49.980;8.358;2023-03-12T16:54:49;9.46;77.49
72277;SHT30;61204;49.980;8.358;2023-03-12T16:57:52;9.42;77.99
72277;SHT30;61204;49.980;8.358;2023-03-12T17:00:28;9.32;78.01
72277;SHT30;61204;49.980;8.358;2023-03-12T17:02:57;9.31;78.01
72277;SHT30;61204;49.980;8.358;2023-03-12T17:05:24;9.24;78.73
72277;SHT30;61204;49.980;8.358;2023-03-12T17:07:53;9.21;78.83
72277;SHT30;61204;49.980;8.358;2023-03-12T17:10:19;9.17;79.04
72277;SHT30;61204;49.980;8.358;2023-03-12T17:12:44;9.08;79.64
72277;SHT30;61204;49.980;8.358;2023-03-12T17:15:29;9.08;79.39
72277;SHT30;61204;49.980;8.358;2023-03-12T17:17:55;9.11;79.13
72277;SHT30;61204;49.980;8.358;2023-03-12T17:20:23;9.03;79.87
72277;SHT30;61204;49.980;8.358;2023-03-12T17:22:51;8.96;79.96
72277;SHT30;61204;49.980;8.358;2023-03-12T17:25:25;8.96;79.91
72277;SHT30;61204;49.980;8.358;2023-03-12T17:27:53;8.93;80.02
72277;SHT30;61204;49.980;8.358;2023-03-12T17:30:21;8.86;80.31
72277;SHT30;61204;49.980;8.358;2023-03-12T17:32:48;8.72;81.31
72277;SHT30;61204;49.980;8.358;2023-03-12T17:35:14;8.63;81.61
72277;SHT30;61204;49.980;8.358;2023-03-12T17:37:41;8.59;82.12
72277;SHT30;61204;49.980;8.358;2023-03-12T17:40:07;8.62;81.91
72277;SHT30;61204;49.980;8.358;2023-03-12T17:42:37;8.73;81.36
72277;SHT30;61204;49.980;8.358;2023-03-12T17:45:05;8.94;80.11
72277;SHT30;61204;49.980;8.358;2023-03-12T17:47:34;9.34;77.60
72277;SHT30;61204;49.980;8.358;2023-03-12T17:50:00;10.08;74.03